createdAt,value
2018-09-06T00:01:26.693Z,20.20
2018-09-06T00:03:55.345Z,20.20
2018-09-06T00:06:24.945Z,20.20
2018-09-06T00:08:53.609Z,20.20
2018-09-06T00:11:22.267Z,20.30
2018-09-06T00:13:50.931Z,20.30
2018-09-06T00:16:19.609Z,20.30
2018-09-06T00:18:48.416Z,20.30
2018-09-06T00:21:17.093Z,20.30
2018-09-06T00:23:45.773Z,20.30
2018-09-06T00:26:14.451Z,20.20
2018-09-06T00:28:43.096Z,20.30
2018-09-06T00:31:11.774Z,20.30
2018-09-06T00:33:40.429Z,20.20
2018-09-06T00:36:09.080Z,20.20
2018-09-06T00:38:39.759Z,20.30
2018-09-06T00:41:08.469Z,20.30
2018-09-06T00:43:37.116Z,20.30
2018-09-06T00:46:05.787Z,20.30
2018-09-06T00:48:34.513Z,20.30
2018-09-06T00:51:03.289Z,20.30
2018-09-06T00:53:32.035Z,20.20
2018-09-06T00:56:00.783Z,20.20
2018-09-06T00:58:29.465Z,20.20
2018-09-06T01:00:58.114Z,20.20
2018-09-06T01:03:26.769Z,20.20
2018-09-06T01:05:55.444Z,20.20
2018-09-06T01:08:24.111Z,20.20
2018-09-06T01:10:52.756Z,20.20
2018-09-06T01:13:21.445Z,20.20
2018-09-06T01:15:50.092Z,20.20
2018-09-06T01:18:18.745Z,20.20
2018-09-06T01:20:47.535Z,20.20
2018-09-06T01:23:16.228Z,20.20
2018-09-06T01:25:49.175Z,20.20
2018-09-06T01:28:19.713Z,20.20
2018-09-06T01:30:48.525Z,20.20
2018-09-06T01:33:17.779Z,20.20
2018-09-06T01:35:51.653Z,20.30
2018-09-06T01:38:20.447Z,20.20
2018-09-06T01:40:49.228Z,20.20
2018-09-06T01:43:17.997Z,20.20
2018-09-06T01:45:46.712Z,20.30
2018-09-06T01:48:15.350Z,20.30
2018-09-06T01:50:44.030Z,20.30
2018-09-06T01:53:12.668Z,20.30
2018-09-06T01:55:41.413Z,20.20
2018-09-06T01:58:10.027Z,20.20
2018-09-06T02:00:38.656Z,20.20
2018-09-06T02:03:07.325Z,20.20
2018-09-06T02:05:36.091Z,20.20
2018-09-06T02:08:07.862Z,20.20
2018-09-06T02:10:36.660Z,20.20
2018-09-06T02:13:05.343Z,20.20
2018-09-06T02:15:34.193Z,20.20
2018-09-06T02:18:02.879Z,20.20
2018-09-06T02:20:31.512Z,20.10
2018-09-06T02:23:00.212Z,20.20
2018-09-06T02:25:29.809Z,20.20
2018-09-06T02:27:58.468Z,20.20
2018-09-06T02:30:27.205Z,20.20
2018-09-06T02:32:55.848Z,20.20
2018-09-06T02:35:24.515Z,20.20
2018-09-06T02:37:53.168Z,20.20
2018-09-06T02:40:27.223Z,20.20
2018-09-06T02:42:55.954Z,20.20
2018-09-06T02:45:24.669Z,20.10
2018-09-06T02:47:55.076Z,20.00
2018-09-06T02:50:29.022Z,20.00
2018-09-06T02:52:58.028Z,20.00
2018-09-06T02:55:27.993Z,20.10
2018-09-06T02:57:57.235Z,20.20
2018-09-06T03:00:32.322Z,20.20
2018-09-06T03:03:01.137Z,20.20
2018-09-06T03:05:29.832Z,20.30
2018-09-06T03:07:59.592Z,20.40
2018-09-06T03:10:44.875Z,20.40
2018-09-06T03:13:13.588Z,20.40
2018-09-06T03:15:42.235Z,20.40
2018-09-06T03:18:10.898Z,20.40
2018-09-06T03:20:39.604Z,20.40
2018-09-06T03:23:08.280Z,20.50
2018-09-06T03:25:36.995Z,20.40
2018-09-06T03:28:05.629Z,20.50
2018-09-06T03:30:34.323Z,20.40
2018-09-06T03:33:03.328Z,20.40
2018-09-06T03:35:31.983Z,20.40
2018-09-06T03:38:00.673Z,20.50
2018-09-06T03:40:29.308Z,20.50
2018-09-06T03:42:58.096Z,20.50
2018-09-06T03:45:26.744Z,20.50
2018-09-06T03:47:55.465Z,20.50
2018-09-06T03:50:24.109Z,20.50
2018-09-06T03:52:52.748Z,20.50
2018-09-06T03:55:21.500Z,20.50
2018-09-06T03:57:50.269Z,20.50
2018-09-06T04:00:18.928Z,20.50
2018-09-06T04:02:47.674Z,20.50
2018-09-06T04:05:16.291Z,20.40
2018-09-06T04:07:44.989Z,20.40
2018-09-06T04:10:13.640Z,20.40
2018-09-06T04:12:42.308Z,20.40
2018-09-06T04:15:10.936Z,20.30
2018-09-06T04:17:39.595Z,20.30
2018-09-06T04:20:08.306Z,20.30
2018-09-06T04:22:41.708Z,20.30
2018-09-06T04:25:10.349Z,20.30
2018-09-06T04:27:38.986Z,20.30
2018-09-06T04:30:07.722Z,20.20
2018-09-06T04:32:36.322Z,20.20
2018-09-06T04:35:05.036Z,20.20
2018-09-06T04:37:33.702Z,20.20
2018-09-06T04:40:02.611Z,20.20
2018-09-06T04:42:31.449Z,20.20
2018-09-06T04:45:00.072Z,20.20
2018-09-06T04:47:28.668Z,20.20
2018-09-06T04:49:57.273Z,20.20
2018-09-06T04:52:25.880Z,20.20
2018-09-06T04:54:54.504Z,20.20
2018-09-06T04:57:23.117Z,20.20
2018-09-06T04:59:51.780Z,20.20
2018-09-06T05:02:20.780Z,20.20
2018-09-06T05:04:49.453Z,20.20
2018-09-06T05:07:18.186Z,20.20
2018-09-06T05:09:46.880Z,20.20
2018-09-06T05:12:15.484Z,20.20
2018-09-06T05:14:44.084Z,20.20
2018-09-06T05:17:12.696Z,20.20
2018-09-06T05:19:41.300Z,20.20
2018-09-06T05:22:09.909Z,20.20
2018-09-06T05:24:38.522Z,20.20
2018-09-06T05:27:07.127Z,20.20
2018-09-06T05:29:35.756Z,20.10
2018-09-06T05:32:04.426Z,20.10
2018-09-06T05:34:33.036Z,20.10
2018-09-06T05:37:01.653Z,20.20
2018-09-06T05:39:30.343Z,20.10
2018-09-06T05:41:58.936Z,20.10
2018-09-06T05:44:27.607Z,20.10
2018-09-06T05:46:56.344Z,20.10
2018-09-06T05:49:24.945Z,20.10
2018-09-06T05:51:53.617Z,20.10
2018-09-06T05:54:22.221Z,20.10
2018-09-06T05:56:50.836Z,20.10
2018-09-06T05:59:19.451Z,20.10
2018-09-06T06:01:48.076Z,20.10
2018-09-06T06:04:16.710Z,20.10
2018-09-06T06:06:45.332Z,20.10
2018-09-06T06:09:13.943Z,20.20
2018-09-06T06:11:42.579Z,20.20
2018-09-06T06:14:11.220Z,20.20
2018-09-06T06:16:39.836Z,20.20
2018-09-06T06:19:08.472Z,20.20
2018-09-06T06:21:37.144Z,20.20
2018-09-06T06:24:06.072Z,20.20
2018-09-06T06:26:34.724Z,20.30
2018-09-06T06:29:03.371Z,20.30
2018-09-06T06:31:32.324Z,20.30
2018-09-06T06:34:00.971Z,20.30
2018-09-06T06:36:29.596Z,20.30
2018-09-06T06:38:58.247Z,20.30
2018-09-06T06:41:26.914Z,20.30
2018-09-06T06:43:55.549Z,20.30
2018-09-06T06:46:24.452Z,20.40
2018-09-06T06:48:53.147Z,20.40
2018-09-06T06:51:21.763Z,20.30
2018-09-06T06:53:50.600Z,20.30
2018-09-06T06:56:19.240Z,20.20
2018-09-06T06:58:47.847Z,20.30
2018-09-06T07:01:16.524Z,20.30
2018-09-06T07:03:45.136Z,20.30
2018-09-06T07:06:13.771Z,20.30
2018-09-06T07:08:42.399Z,20.30
2018-09-06T07:11:11.008Z,20.30
2018-09-06T07:13:39.609Z,20.30
2018-09-06T07:16:08.268Z,20.30
2018-09-06T07:18:39.062Z,20.30
2018-09-06T07:21:13.940Z,20.30
2018-09-06T07:23:42.682Z,20.30
2018-09-06T07:26:11.348Z,20.20
2018-09-06T07:28:39.996Z,20.20
2018-09-06T07:31:08.663Z,20.20
2018-09-06T07:33:37.321Z,20.10
2018-09-06T07:36:06.023Z,20.20
2018-09-06T07:38:34.680Z,20.20
2018-09-06T07:41:03.372Z,20.20
2018-09-06T07:43:32.020Z,20.20
2018-09-06T07:46:00.681Z,20.10
2018-09-06T07:48:29.321Z,20.10
2018-09-06T07:50:58.002Z,20.10
2018-09-06T07:53:26.667Z,20.20
2018-09-06T07:55:55.335Z,20.20
2018-09-06T07:58:24.089Z,20.20
2018-09-06T08:00:52.787Z,20.10
2018-09-06T08:03:21.578Z,20.00
2018-09-06T08:05:50.243Z,20.00
2018-09-06T08:08:18.980Z,20.00
2018-09-06T08:10:47.649Z,20.10
2018-09-06T08:13:16.355Z,20.10
2018-09-06T08:15:45.025Z,20.00
2018-09-06T08:18:13.707Z,20.00
2018-09-06T08:20:42.485Z,20.00
2018-09-06T08:23:11.267Z,20.00
2018-09-06T08:25:39.940Z,20.00
2018-09-06T08:28:08.634Z,20.00
2018-09-06T08:30:37.619Z,20.00
2018-09-06T08:33:06.257Z,20.00
2018-09-06T08:35:34.979Z,20.10
2018-09-06T08:38:03.648Z,20.10
2018-09-06T08:40:32.313Z,20.20
2018-09-06T08:43:00.996Z,20.40
2018-09-06T08:45:29.815Z,20.60
2018-09-06T08:47:58.416Z,20.80
2018-09-06T08:50:27.096Z,21.00
2018-09-06T08:52:56.600Z,21.10
2018-09-06T08:55:25.323Z,21.30
2018-09-06T08:57:55.013Z,21.50
2018-09-06T09:00:23.721Z,21.50
2018-09-06T09:02:52.476Z,21.40
2018-09-06T09:05:21.124Z,21.40
2018-09-06T09:07:49.824Z,21.40
2018-09-06T09:10:18.508Z,21.40
2018-09-06T09:12:47.283Z,21.40
2018-09-06T09:15:16.085Z,21.50
2018-09-06T09:17:44.793Z,21.60
2018-09-06T09:20:13.464Z,21.70
2018-09-06T09:22:42.137Z,21.70
2018-09-06T09:25:10.816Z,21.80
2018-09-06T09:27:39.691Z,21.80
2018-09-06T09:30:08.514Z,22.10
2018-09-06T09:32:37.179Z,22.40
2018-09-06T09:35:05.998Z,22.90
2018-09-06T09:37:34.826Z,23.20
2018-09-06T09:40:05.011Z,23.30
2018-09-06T09:42:33.691Z,23.30
2018-09-06T09:45:04.623Z,23.30
2018-09-06T09:50:02.369Z,23.20
2018-09-06T09:52:31.036Z,23.20
2018-09-06T09:54:59.867Z,23.20
2018-09-06T09:57:28.710Z,23.20
2018-09-06T09:59:57.364Z,23.30
2018-09-06T10:02:31.454Z,23.30
2018-09-06T10:05:05.493Z,23.50
2018-09-06T10:07:39.656Z,23.50
2018-09-06T10:10:08.363Z,23.70
2018-09-06T10:12:37.042Z,23.80
2018-09-06T10:15:05.864Z,23.90
2018-09-06T10:17:34.653Z,24.10
2018-09-06T10:20:03.353Z,24.40
2018-09-06T10:22:32.257Z,24.90
2018-09-06T10:25:03.992Z,25.10
2018-09-06T10:27:32.936Z,25.30
2018-09-06T10:30:03.236Z,25.60
2018-09-06T10:32:32.056Z,25.90
2018-09-06T10:35:00.938Z,26.00
2018-09-06T10:37:29.612Z,26.00
2018-09-06T10:39:58.639Z,25.90
2018-09-06T10:42:27.269Z,25.80
2018-09-06T10:44:56.077Z,25.80
2018-09-06T10:47:24.892Z,25.80
2018-09-06T10:49:53.676Z,25.90
2018-09-06T10:52:22.488Z,26.10
2018-09-06T10:54:51.162Z,26.40
2018-09-06T10:57:19.930Z,26.60
2018-09-06T10:59:49.255Z,26.80
2018-09-06T11:02:18.430Z,27.10
2018-09-06T11:04:47.189Z,27.40
2018-09-06T11:07:15.949Z,27.40
2018-09-06T11:09:44.860Z,27.50
2018-09-06T11:12:13.544Z,27.60
2018-09-06T11:14:43.026Z,27.60
2018-09-06T11:17:11.671Z,27.70
2018-09-06T11:19:40.333Z,27.80
2018-09-06T11:22:09.187Z,27.80
2018-09-06T11:24:37.740Z,27.90
2018-09-06T11:27:06.463Z,28.00
2018-09-06T11:29:35.124Z,28.10
2018-09-06T11:32:03.856Z,28.10
2018-09-06T11:34:32.863Z,28.20
2018-09-06T11:37:01.527Z,28.20
2018-09-06T11:39:30.178Z,28.30
2018-09-06T11:41:59.065Z,28.40
2018-09-06T11:44:28.399Z,28.40
2018-09-06T11:46:57.287Z,28.50
2018-09-06T11:49:25.868Z,28.50
2018-09-06T11:51:54.707Z,28.60
2018-09-06T11:54:23.372Z,28.70
2018-09-06T11:56:52.151Z,28.70
2018-09-06T11:59:20.880Z,28.70
2018-09-06T12:01:49.713Z,28.80
2018-09-06T12:04:18.511Z,28.70
2018-09-06T12:06:47.361Z,28.80
2018-09-06T12:09:15.996Z,29.10
2018-09-06T12:11:47.506Z,29.20
2018-09-06T12:14:17.320Z,29.30
2018-09-06T12:16:45.994Z,29.40
2018-09-06T12:19:14.933Z,29.40
2018-09-06T12:21:43.571Z,29.40
2018-09-06T12:24:12.384Z,29.20
2018-09-06T12:26:41.119Z,28.90
2018-09-06T12:29:10.309Z,28.60
2018-09-06T12:31:39.596Z,28.40
2018-09-06T12:34:08.383Z,28.20
2018-09-06T12:36:37.028Z,28.20
2018-09-06T12:39:07.602Z,28.40
2018-09-06T12:41:36.323Z,28.60
2018-09-06T12:44:05.022Z,28.90
2018-09-06T12:46:33.772Z,29.10
2018-09-06T12:49:02.422Z,29.20
2018-09-06T12:51:31.224Z,29.30
2018-09-06T12:54:00.168Z,29.40
2018-09-06T12:56:28.860Z,29.50
2018-09-06T12:58:57.631Z,29.60
2018-09-06T13:01:26.284Z,29.40
2018-09-06T13:03:54.935Z,29.30
2018-09-06T13:06:23.600Z,29.30
2018-09-06T13:08:52.293Z,29.40
2018-09-06T13:11:21.091Z,29.40
2018-09-06T13:13:49.841Z,29.20
2018-09-06T13:16:18.519Z,29.00
2018-09-06T13:18:47.400Z,28.70
2018-09-06T13:21:16.381Z,28.50
2018-09-06T13:23:45.042Z,28.20
2018-09-06T13:26:13.703Z,28.00
2018-09-06T13:28:42.484Z,27.90
2018-09-06T13:31:11.256Z,28.10
2018-09-06T13:33:39.916Z,28.40
2018-09-06T13:36:08.764Z,28.60
2018-09-06T13:38:37.467Z,28.90
2018-09-06T13:41:06.880Z,29.10
2018-09-06T13:43:35.582Z,29.30
2018-09-06T13:46:04.295Z,29.30
2018-09-06T13:48:32.951Z,29.50
2018-09-06T13:51:01.612Z,29.60
2018-09-06T13:53:30.398Z,29.70
2018-09-06T13:55:59.360Z,29.70
2018-09-06T13:58:28.387Z,29.70
2018-09-06T14:00:57.101Z,29.60
2018-09-06T14:03:25.753Z,29.70
2018-09-06T14:05:54.617Z,29.70
2018-09-06T14:08:23.135Z,29.70
2018-09-06T14:10:51.780Z,29.70
2018-09-06T14:13:20.453Z,29.70
2018-09-06T14:15:49.084Z,29.50
2018-09-06T14:18:17.728Z,29.40
2018-09-06T14:20:46.400Z,29.30
2018-09-06T14:23:15.058Z,29.30
2018-09-06T14:25:43.691Z,29.10
2018-09-06T14:28:12.333Z,28.90
2018-09-06T14:30:40.975Z,28.70
2018-09-06T14:33:09.616Z,28.50
2018-09-06T14:35:38.232Z,28.40
2018-09-06T14:38:06.918Z,28.40
2018-09-06T14:40:35.597Z,28.50
2018-09-06T14:43:04.704Z,28.60
2018-09-06T14:45:33.421Z,28.80
2018-09-06T14:48:02.079Z,28.90
2018-09-06T14:50:30.787Z,29.00
2018-09-06T14:52:59.615Z,29.10
2018-09-06T14:55:28.272Z,29.20
2018-09-06T14:57:56.924Z,29.20
2018-09-06T15:00:25.590Z,29.20
2018-09-06T15:02:54.225Z,29.10
2018-09-06T15:05:22.864Z,29.00
2018-09-06T15:07:51.532Z,29.00
2018-09-06T15:10:20.203Z,28.90
2018-09-06T15:12:48.874Z,28.90
2018-09-06T15:15:17.523Z,28.90
2018-09-06T15:17:46.188Z,28.80
2018-09-06T15:20:14.830Z,28.80
2018-09-06T15:22:44.048Z,28.80
2018-09-06T15:25:12.708Z,28.70
2018-09-06T15:27:42.092Z,28.70
2018-09-06T15:30:10.758Z,28.60
2018-09-06T15:32:39.765Z,28.60
2018-09-06T15:35:08.420Z,28.70
2018-09-06T15:37:37.056Z,28.60
2018-09-06T15:40:05.997Z,28.60
2018-09-06T15:42:34.642Z,28.60
2018-09-06T15:45:03.643Z,28.40
2018-09-06T15:47:32.284Z,28.30
2018-09-06T15:50:01.291Z,28.10
2018-09-06T15:52:29.932Z,28.10
2018-09-06T15:54:58.616Z,28.00
2018-09-06T15:57:27.292Z,28.00
2018-09-06T15:59:56.009Z,27.90
2018-09-06T16:02:24.672Z,27.90
2018-09-06T16:04:53.344Z,27.80
2018-09-06T16:07:21.988Z,27.60
2018-09-06T16:09:50.633Z,27.50
2018-09-06T16:12:20.210Z,27.50
2018-09-06T16:14:49.175Z,27.40
2018-09-06T16:17:17.857Z,27.30
2018-09-06T16:19:46.493Z,27.20
2018-09-06T16:22:15.138Z,27.10
2018-09-06T16:24:43.825Z,27.10
2018-09-06T16:27:12.517Z,27.10
2018-09-06T16:29:42.316Z,27.00
2018-09-06T16:32:10.977Z,27.00
2018-09-06T16:34:39.765Z,27.00
2018-09-06T16:37:08.458Z,26.90
2018-09-06T16:39:37.094Z,27.00
2018-09-06T16:42:05.804Z,26.90
2018-09-06T16:44:34.517Z,26.80
2018-09-06T16:47:03.173Z,26.80
2018-09-06T16:49:31.807Z,26.80
2018-09-06T16:52:00.528Z,26.70
2018-09-06T16:54:29.148Z,26.70
2018-09-06T16:56:57.851Z,26.60
2018-09-06T16:59:26.489Z,26.60
2018-09-06T17:01:55.124Z,26.50
2018-09-06T17:04:23.885Z,26.40
2018-09-06T17:06:52.540Z,26.30
2018-09-06T17:09:21.194Z,26.20
2018-09-06T17:11:49.824Z,26.20
2018-09-06T17:14:18.481Z,26.20
2018-09-06T17:16:47.176Z,26.10
2018-09-06T17:19:15.812Z,26.00
2018-09-06T17:21:44.432Z,25.90
2018-09-06T17:24:13.087Z,25.90
2018-09-06T17:26:41.752Z,25.80
2018-09-06T17:29:10.407Z,25.70
2018-09-06T17:31:39.035Z,25.70
2018-09-06T17:34:07.675Z,25.60
2018-09-06T17:36:36.360Z,25.60
2018-09-06T17:39:08.105Z,25.40
2018-09-06T17:41:36.832Z,25.30
2018-09-06T17:44:05.620Z,25.20
2018-09-06T17:46:34.313Z,25.00
2018-09-06T17:49:02.984Z,25.00
2018-09-06T17:51:31.621Z,24.90
2018-09-06T17:54:00.308Z,24.90
2018-09-06T17:56:29.089Z,24.90
2018-09-06T17:58:57.863Z,24.80
2018-09-06T18:01:35.464Z,24.70
2018-09-06T18:04:04.724Z,24.60
2018-09-06T18:06:33.409Z,24.50
2018-09-06T18:09:02.955Z,24.40
2018-09-06T18:11:31.635Z,24.30
2018-09-06T18:14:00.717Z,24.30
2018-09-06T18:16:29.439Z,24.20
2018-09-06T18:18:58.855Z,24.10
2018-09-06T18:21:27.624Z,24.00
2018-09-06T18:23:56.838Z,23.80
2018-09-06T18:26:25.955Z,23.70
2018-09-06T18:28:54.584Z,23.70
2018-09-06T18:31:23.230Z,23.70
2018-09-06T18:33:52.017Z,23.60
2018-09-06T18:36:20.984Z,23.50
2018-09-06T18:38:50.253Z,23.40
2018-09-06T18:41:18.993Z,23.20
2018-09-06T18:43:47.665Z,23.00
2018-09-06T18:46:16.303Z,22.90
2018-09-06T18:48:44.928Z,22.80
2018-09-06T18:51:13.581Z,22.70
2018-09-06T18:53:42.194Z,22.70
2018-09-06T18:56:10.903Z,22.70
2018-09-06T18:58:41.296Z,22.70
2018-09-06T19:01:09.915Z,22.60
2018-09-06T19:03:38.580Z,22.60
2018-09-06T19:06:08.513Z,22.60
2018-09-06T19:08:37.248Z,22.60
2018-09-06T19:11:06.001Z,22.60
2018-09-06T19:13:38.105Z,22.60
2018-09-06T19:16:14.709Z,22.50
2018-09-06T19:18:47.479Z,22.50
2018-09-06T19:21:19.641Z,22.50
2018-09-06T19:23:48.378Z,22.50
2018-09-06T19:26:17.752Z,22.50
2018-09-06T19:28:47.219Z,22.40
2018-09-06T19:31:16.121Z,22.40
2018-09-06T19:33:45.073Z,22.40
2018-09-06T19:36:14.493Z,22.30
2018-09-06T19:38:43.511Z,22.30
2018-09-06T19:41:12.791Z,22.10
2018-09-06T19:43:41.832Z,22.00
2018-09-06T19:46:11.496Z,21.80
2018-09-06T19:48:41.061Z,21.80
2018-09-06T19:51:11.168Z,21.80
2018-09-06T19:53:40.921Z,21.70
2018-09-06T19:56:10.036Z,21.70
2018-09-06T19:58:39.441Z,21.60
2018-09-06T20:01:08.824Z,21.50
2018-09-06T20:03:37.685Z,21.50
2018-09-06T20:06:06.516Z,21.40
2018-09-06T20:08:36.300Z,21.30
2018-09-06T20:11:05.333Z,21.30
2018-09-06T20:13:34.117Z,21.30
2018-09-06T20:16:02.833Z,21.20
2018-09-06T20:18:32.379Z,21.20
2018-09-06T20:21:02.300Z,21.20
2018-09-06T20:23:31.424Z,21.20
2018-09-06T20:26:01.548Z,21.20
2018-09-06T20:28:31.924Z,21.20
2018-09-06T20:31:00.557Z,21.20
2018-09-06T20:33:29.362Z,21.30
2018-09-06T20:35:59.839Z,21.10
2018-09-06T20:38:28.565Z,21.10
2018-09-06T20:40:57.248Z,21.10
2018-09-06T20:43:26.119Z,21.00
2018-09-06T20:45:56.824Z,20.90
2018-09-06T20:48:26.246Z,20.90
2018-09-06T20:50:55.651Z,20.90
2018-09-06T20:53:24.581Z,20.90
2018-09-06T20:55:54.671Z,20.90
2018-09-06T20:58:24.786Z,20.80
2018-09-06T21:00:53.403Z,20.80
2018-09-06T21:03:23.625Z,20.70
2018-09-06T21:05:52.421Z,20.70
2018-09-06T21:08:21.331Z,20.60
2018-09-06T21:10:50.567Z,20.50
2018-09-06T21:13:20.369Z,20.50
2018-09-06T21:15:49.078Z,20.50
2018-09-06T21:18:21.064Z,20.50
2018-09-06T21:20:50.025Z,20.50
2018-09-06T21:23:19.943Z,20.40
2018-09-06T21:25:48.798Z,20.30
2018-09-06T21:28:17.558Z,20.30
2018-09-06T21:30:48.228Z,20.30
2018-09-06T21:33:17.264Z,20.20
2018-09-06T21:35:50.117Z,20.30
2018-09-06T21:38:19.548Z,20.20
2018-09-06T21:40:48.224Z,20.30
2018-09-06T21:43:16.952Z,20.30
2018-09-06T21:45:45.599Z,20.30
2018-09-06T21:48:14.647Z,20.30
2018-09-06T21:50:43.254Z,20.20
2018-09-06T21:53:12.975Z,20.20
2018-09-06T21:55:41.841Z,20.10
2018-09-06T21:58:10.616Z,20.10
2018-09-06T22:00:39.255Z,20.10
2018-09-06T22:03:13.324Z,20.00
2018-09-06T22:05:41.924Z,20.00
2018-09-06T22:08:10.525Z,20.00
2018-09-06T22:10:39.228Z,19.90
2018-09-06T22:13:07.895Z,19.90
2018-09-06T22:15:36.556Z,19.90
2018-09-06T22:18:05.579Z,20.00
2018-09-06T22:20:34.236Z,20.00
2018-09-06T22:23:03.048Z,19.90
2018-09-06T22:25:32.187Z,19.90
2018-09-06T22:28:00.837Z,19.90
2018-09-06T22:30:29.613Z,20.00
2018-09-06T22:32:58.379Z,19.90
2018-09-06T22:35:27.042Z,20.00
2018-09-06T22:37:55.722Z,20.00
2018-09-06T22:40:24.382Z,20.00
2018-09-06T22:42:53.036Z,19.90
2018-09-06T22:45:21.747Z,19.90
2018-09-06T22:47:50.399Z,19.90
2018-09-06T22:50:19.697Z,20.00
2018-09-06T22:52:49.236Z,20.00
2018-09-06T22:55:18.033Z,20.00
2018-09-06T22:57:46.709Z,20.00
2018-09-06T23:00:18.306Z,19.90
2018-09-06T23:02:52.340Z,19.80
2018-09-06T23:05:21.155Z,19.90
2018-09-06T23:07:49.833Z,19.80
2018-09-06T23:10:18.619Z,19.60
2018-09-06T23:12:47.312Z,19.60
2018-09-06T23:15:16.007Z,19.50
2018-09-06T23:17:44.662Z,19.50
2018-09-06T23:20:13.332Z,19.40
2018-09-06T23:22:42.120Z,19.50
2018-09-06T23:25:10.755Z,19.50
2018-09-06T23:27:39.475Z,19.40
2018-09-06T23:30:08.224Z,19.40
2018-09-06T23:32:36.881Z,19.30
2018-09-06T23:35:05.619Z,19.20
2018-09-06T23:37:34.357Z,19.20
2018-09-06T23:40:03.037Z,19.20
2018-09-06T23:42:31.681Z,19.10
2018-09-06T23:45:00.384Z,19.10
2018-09-06T23:47:29.017Z,19.00
2018-09-06T23:49:57.704Z,19.00
2018-09-06T23:52:26.361Z,18.90
2018-09-06T23:54:55.009Z,18.80
2018-09-06T23:57:23.654Z,18.80
2018-09-06T23:59:52.284Z,18.80
